Time;durP1;ratioP1;P1;durP2;ratioP2;P2;SDS_P1;SDS_P2;PMS_P1;PMS_P2;Temp;Humidity;BMP_temperature;BMP_pressure;BME280_temperature;BME280_humidity;BME280_pressure;Samples;Min_cycle;Max_cycle;Signal;HPM_P1;HPM_P2
2023/04/30 00:01:27;;;;;;;17.13;7.30;;;;;;;11.35;83.51;96448.41;5092622;28;20044;-74
2023/04/30 00:03:55;;;;;;;12.20;5.60;;;;;;;11.32;83.52;96446.31;5093494;28;20487;-73
2023/04/30 00:06:21;;;;;;;8.60;5.63;;;;;;;11.30;83.87;96437.69;5092339;28;20044;-73
2023/04/30 00:08:48;;;;;;;11.05;6.40;;;;;;;11.21;83.91;96448.56;5092805;28;20052;-75
2023/04/30 00:11:14;;;;;;;13.23;6.85;;;;;;;11.16;84.14;96446.78;5090668;27;20048;-74
2023/04/30 00:13:42;;;;;;;9.65;5.80;;;;;;;11.18;84.31;96447.28;5093160;28;20051;-74
2023/04/30 00:16:09;;;;;;;12.48;6.60;;;;;;;11.17;84.16;96447.59;5093212;28;20047;-73
2023/04/30 00:18:36;;;;;;;11.02;6.28;;;;;;;11.16;84.67;96446.00;5093396;28;20047;-73
2023/04/30 00:21:04;;;;;;;11.52;6.40;;;;;;;11.11;84.86;96437.97;5092812;28;20044;-74
2023/04/30 00:23:31;;;;;;;11.40;6.40;;;;;;;11.13;84.91;96441.19;5086414;28;20044;-74
2023/04/30 00:25:57;;;;;;;9.43;5.82;;;;;;;11.15;84.84;96444.41;5093590;28;20051;-73
2023/04/30 00:28:24;;;;;;;10.98;6.00;;;;;;;11.15;84.60;96450.66;5092873;28;20040;-73
2023/04/30 00:30:50;;;;;;;10.88;6.38;;;;;;;11.15;84.83;96453.38;5092955;28;20382;-74
2023/04/30 00:33:17;;;;;;;8.70;5.50;;;;;;;11.17;85.14;96459.31;5093128;28;20682;-73
2023/04/30 00:35:43;;;;;;;11.27;6.40;;;;;;;11.13;85.27;96452.91;5091804;27;20052;-74
2023/04/30 00:38:11;;;;;;;14.77;7.32;;;;;;;11.12;85.38;96450.47;5092393;27;20051;-74
2023/04/30 00:40:40;;;;;;;9.25;5.65;;;;;;;11.13;85.52;96450.16;5093513;28;20048;-76
2023/04/30 00:43:06;;;;;;;10.60;5.82;;;;;;;11.14;85.18;96438.16;5093288;28;20068;-74
2023/04/30 00:45:33;;;;;;;14.07;6.82;;;;;;;11.10;85.35;96445.34;5092072;28;20051;-74
2023/04/30 00:48:00;;;;;;;9.70;5.60;;;;;;;11.10;85.64;96441.81;5097097;28;20044;-74
2023/04/30 00:50:26;;;;;;;9.73;5.80;;;;;;;11.06;85.63;96440.84;5093658;28;20487;-73
2023/04/30 00:52:53;;;;;;;9.25;5.57;;;;;;;11.03;85.61;96445.03;5094395;28;20418;-73
2023/04/30 00:55:21;;;;;;;10.07;5.95;;;;;;;10.98;85.55;96445.19;5100679;28;20052;-74
2023/04/30 00:57:48;;;;;;;14.90;7.07;;;;;;;10.94;85.98;96455.09;5097261;28;20158;-74
2023/04/30 01:00:15;;;;;;;12.30;6.45;;;;;;;10.92;86.39;96454.63;5098223;27;20040;-74
2023/04/30 01:02:42;;;;;;;9.05;5.90;;;;;;;10.91;85.90;96453.00;5100124;28;20040;-74
2023/04/30 01:05:08;;;;;;;10.35;6.13;;;;;;;10.87;85.91;96465.66;5099255;28;20047;-74
2023/04/30 01:07:37;;;;;;;11.40;6.72;;;;;;;10.81;85.82;96461.50;5098682;28;20526;-73
2023/04/30 01:10:04;;;;;;;10.52;6.05;;;;;;;10.77;85.39;96471.41;5099006;27;20040;-73
2023/04/30 01:12:39;;;;;;;10.50;5.90;;;;;;;10.74;85.85;96463.88;5099780;28;20101;-73
2023/04/30 01:15:14;;;;;;;10.18;6.35;;;;;;;10.64;85.90;96463.03;5096652;28;20067;-73
2023/04/30 01:17:48;;;;;;;12.15;7.18;;;;;;;10.68;86.41;96477.63;5092913;28;20070;-73
2023/04/30 01:20:15;;;;;;;13.23;7.10;;;;;;;10.65;86.43;96475.53;5092092;28;20039;-74
2023/04/30 01:22:49;;;;;;;11.57;7.03;;;;;;;10.57;86.71;96473.59;5087690;28;20044;-73
2023/04/30 01:25:35;;;;;;;11.55;6.75;;;;;;;10.60;86.65;96478.41;5091166;28;20040;-73
2023/04/30 01:28:09;;;;;;;11.38;6.72;;;;;;;10.64;87.13;96473.91;5092142;28;20483;-73
2023/04/30 01:30:36;;;;;;;10.15;6.00;;;;;;;10.57;87.02;96472.78;5089951;27;20051;-74
2023/04/30 01:33:03;;;;;;;14.27;7.63;;;;;;;10.60;88.00;96475.69;5090306;27;20036;-74
2023/04/30 01:35:51;;;;;;;13.00;6.93;;;;;;;10.63;88.07;96485.94;5090314;28;20048;-74
2023/04/30 01:38:28;;;;;;;13.52;6.97;;;;;;;10.64;88.35;96476.63;5085570;28;20165;-74
2023/04/30 01:41:01;;;;;;;14.85;7.40;;;;;;;10.63;88.19;96483.22;5090320;28;20063;-73
2023/04/30 01:43:33;;;;;;;;;;;;;;;10.62;88.31;96484.34;5091013;28;20040;-73
2023/04/30 01:46:10;;;;;;;12.45;7.13;;;;;;;10.61;88.26;96480.00;5083685;28;19931;-73
2023/04/30 01:48:43;;;;;;;13.38;7.28;;;;;;;10.60;88.46;96483.84;5091383;28;20036;-73
2023/04/30 01:51:19;;;;;;;9.95;5.95;;;;;;;10.58;88.66;96486.06;5088398;28;20051;-73
2023/04/30 01:53:46;;;;;;;12.05;7.15;;;;;;;10.57;88.47;96487.19;5089897;27;20538;-74
2023/04/30 01:56:18;;;;;;;12.38;6.63;;;;;;;10.61;88.38;96490.91;5091054;28;20047;-74
2023/04/30 01:58:49;;;;;;;15.90;6.63;;;;;;;10.62;88.20;96500.66;5091364;28;20044;-74
2023/04/30 02:01:27;;;;;;;13.35;7.18;;;;;;;10.57;87.84;96495.38;5088794;27;20490;-73
2023/04/30 02:03:53;;;;;;;12.95;7.05;;;;;;;10.52;87.06;96500.94;5089190;28;20036;-74
2023/04/30 02:06:20;;;;;;;11.35;6.85;;;;;;;10.57;87.14;96500.00;5090494;28;20047;-74
2023/04/30 02:08:46;;;;;;;12.00;6.45;;;;;;;10.58;87.38;96494.25;5090454;28;20044;-74
2023/04/30 02:11:13;;;;;;;15.02;7.88;;;;;;;10.61;86.75;96496.34;5090531;28;20052;-74
2023/04/30 02:13:39;;;;;;;12.65;7.15;;;;;;;10.63;86.41;96496.81;5091003;28;20044;-74
2023/04/30 02:16:08;;;;;;;12.95;7.13;;;;;;;10.62;86.37;96497.94;5089022;28;20052;-73
2023/04/30 02:18:34;;;;;;;11.48;6.15;;;;;;;10.62;86.47;96503.41;5090975;28;20040;-74
2023/04/30 02:21:01;;;;;;;13.07;6.65;;;;;;;10.59;86.34;96501.28;5090968;28;20044;-74
2023/04/30 02:23:27;;;;;;;13.15;6.63;;;;;;;10.57;86.48;96500.81;5090636;28;20403;-74
2023/04/30 02:25:54;;;;;;;12.68;6.88;;;;;;;10.56;86.40;96507.38;5091154;28;20051;-74
2023/04/30 02:28:20;;;;;;;14.90;7.53;;;;;;;10.55;86.71;96505.78;5089615;28;20055;-73
2023/04/30 02:30:47;;;;;;;13.73;7.10;;;;;;;10.53;86.44;96512.63;5089545;28;20044;-73
2023/04/30 02:33:14;;;;;;;14.93;7.35;;;;;;;10.51;86.63;96507.53;5089835;28;20501;-74
2023/04/30 02:35:41;;;;;;;13.38;7.25;;;;;;;10.49;86.41;96512.44;5090215;28;20118;-73
2023/04/30 02:38:08;;;;;;;13.52;6.32;;;;;;;10.48;86.67;96513.56;5088843;28;20518;-74
2023/04/30 02:40:35;;;;;;;13.25;7.00;;;;;;;10.47;86.90;96513.91;5089577;28;20070;-73
2023/04/30 02:43:01;;;;;;;13.98;7.53;;;;;;;10.48;87.24;96515.50;5089641;28;20040;-74
2023/04/30 02:45:28;;;;;;;13.85;6.93;;;;;;;10.45;87.36;96511.50;5090344;28;20649;-74
2023/04/30 02:47:54;;;;;;;15.95;7.20;;;;;;;10.45;87.39;96512.31;5090117;28;20059;-73
2023/04/30 02:50:22;;;;;;;12.50;6.55;;;;;;;10.46;87.31;96504.94;5089321;28;20040;-74
2023/04/30 02:52:49;;;;;;;17.20;7.80;;;;;;;10.48;87.78;96501.88;5089037;28;20530;-74
2023/04/30 02:55:15;;;;;;;11.70;6.78;;;;;;;10.48;87.36;96510.84;5089178;28;20044;-73
2023/04/30 02:57:42;;;;;;;14.38;7.25;;;;;;;10.51;87.76;96512.16;5089673;28;20123;-73
2023/04/30 03:00:09;;;;;;;14.63;7.10;;;;;;;10.49;87.50;96501.56;5089633;28;20043;-73
2023/04/30 03:02:36;;;;;;;14.40;6.93;;;;;;;10.51;87.51;96506.72;5089820;28;20044;-73
2023/04/30 03:05:03;;;;;;;16.70;7.93;;;;;;;10.52;87.69;96516.47;5086928;27;20499;-73
2023/04/30 03:07:30;;;;;;;20.90;8.57;;;;;;;10.50;87.76;96508.63;5087546;27;20055;-73
2023/04/30 03:09:57;;;;;;;11.40;6.47;;;;;;;10.48;87.57;96508.13;5089513;28;20690;-73
2023/04/30 03:12:23;;;;;;;14.90;6.82;;;;;;;10.46;87.73;96515.81;5089380;28;20036;-74
2023/04/30 03:14:51;;;;;;;17.13;8.18;;;;;;;10.42;87.49;96510.19;5089620;28;20051;-73
2023/04/30 03:17:17;;;;;;;17.83;8.50;;;;;;;10.43;87.84;96519.97;5087947;28;20483;-74
2023/04/30 03:19:44;;;;;;;15.48;7.40;;;;;;;10.46;87.88;96521.25;5089426;28;20075;-73
2023/04/30 03:22:11;;;;;;;16.60;7.50;;;;;;;10.46;88.06;96515.81;5091923;28;20401;-73
2023/04/30 03:24:38;;;;;;;16.55;8.48;;;;;;;10.44;87.86;96518.06;5092795;28;20052;-73
2023/04/30 03:27:05;;;;;;;16.20;8.13;;;;;;;10.42;88.24;96512.09;5093505;28;20040;-74
2023/04/30 03:29:31;;;;;;;16.15;7.70;;;;;;;10.43;88.01;96508.25;5092993;28;20040;-73
2023/04/30 03:31:58;;;;;;;13.57;7.25;;;;;;;10.46;88.46;96504.94;5093615;28;20044;-73
2023/04/30 03:34:24;;;;;;;15.57;7.50;;;;;;;10.41;88.17;96507.78;5091155;27;20039;-73
2023/04/30 03:36:51;;;;;;;18.83;8.00;;;;;;;10.42;88.26;96512.09;5093089;28;20051;-73
2023/04/30 03:39:17;;;;;;;17.67;8.30;;;;;;;10.37;88.16;96502.16;5092999;28;20491;-73
2023/04/30 03:41:45;;;;;;;16.05;7.80;;;;;;;10.38;88.23;96494.78;5092640;27;20048;-73
2023/04/30 03:44:14;;;;;;;16.95;7.72;;;;;;;10.38;88.52;96492.88;5091912;28;20044;-73
2023/04/30 03:46:41;;;;;;;18.77;7.88;;;;;;;10.35;88.33;96490.78;5092865;28;20056;-74
2023/04/30 03:49:08;;;;;;;15.05;7.65;;;;;;;10.30;88.50;96490.91;5092825;28;20075;-74
2023/04/30 03:51:38;;;;;;;17.50;8.15;;;;;;;10.29;88.51;96491.25;5092301;28;20047;-74
2023/04/30 03:54:05;;;;;;;16.35;8.35;;;;;;;10.17;88.77;96491.78;5084508;28;20427;-73
2023/04/30 03:56:31;;;;;;;12.32;7.13;;;;;;;10.15;88.20;96489.38;5091722;28;20055;-74
2023/04/30 03:58:59;;;;;;;15.98;8.15;;;;;;;10.10;88.40;96494.94;5092895;28;20059;-73
2023/04/30 04:01:26;;;;;;;19.65;9.10;;;;;;;10.06;88.57;96490.44;5092315;28;20044;-74
2023/04/30 04:03:53;;;;;;;18.38;8.68;;;;;;;10.04;88.56;96493.47;5091827;28;20055;-74
2023/04/30 04:06:20;;;;;;;14.68;7.28;;;;;;;10.07;88.91;96492.84;5091257;28;20102;-74
2023/04/30 04:08:47;;;;;;;15.93;7.72;;;;;;;10.11;89.50;96491.09;5092730;28;20052;-74
2023/04/30 04:11:13;;;;;;;20.08;8.68;;;;;;;10.12;89.29;96492.69;5092478;28;20044;-73
2023/04/30 04:13:40;;;;;;;16.00;9.13;;;;;;;10.04;89.54;96492.66;5092910;28;20050;-74
2023/04/30 04:16:08;;;;;;;14.38;7.90;;;;;;;10.09;89.71;96487.91;5090312;28;20036;-74
2023/04/30 04:18:35;;;;;;;13.20;7.85;;;;;;;10.14;89.32;96493.22;5093454;28;20113;-74
2023/04/30 04:21:01;;;;;;;15.77;8.48;;;;;;;10.17;89.28;96492.56;5092806;28;20044;-74
2023/04/30 04:23:28;;;;;;;15.88;8.48;;;;;;;10.19;89.24;96489.56;5092883;28;20044;-73
2023/04/30 04:25:56;;;;;;;17.80;8.75;;;;;;;10.23;88.90;96500.59;5092566;28;20407;-74
2023/04/30 04:28:22;;;;;;;17.52;8.75;;;;;;;10.24;88.80;96502.25;5090829;28;20067;-73
2023/04/30 04:30:49;;;;;;;20.73;10.10;;;;;;;10.22;88.78;96507.16;5091391;28;20505;-74
2023/04/30 04:33:17;;;;;;;16.80;9.13;;;;;;;10.21;88.37;96509.09;5091979;28;20036;-75
2023/04/30 04:35:44;;;;;;;16.35;9.35;;;;;;;10.18;88.58;96510.53;5093196;28;20422;-76
2023/04/30 04:38:10;;;;;;;13.82;8.45;;;;;;;10.19;88.26;96503.97;5093545;28;20048;-76
2023/04/30 04:40:37;;;;;;;15.82;8.82;;;;;;;10.11;88.09;96515.59;5092766;28;20044;-75
2023/04/30 04:43:03;;;;;;;17.10;9.05;;;;;;;10.07;88.18;96509.16;5092781;28;20112;-75
2023/04/30 04:45:30;;;;;;;16.95;8.50;;;;;;;10.10;88.06;96518.63;5092310;28;20491;-76
2023/04/30 04:47:56;;;;;;;15.60;8.30;;;;;;;10.15;88.08;96519.31;5092329;28;20055;-73
2023/04/30 04:50:24;;;;;;;17.35;8.75;;;;;;;10.19;88.28;96523.00;5091925;28;20039;-74
2023/04/30 04:52:51;;;;;;;17.83;9.38;;;;;;;10.12;88.05;96524.56;5091181;28;20071;-73
2023/04/30 04:55:17;;;;;;;16.38;8.73;;;;;;;10.15;88.06;96521.22;5091638;28;20102;-74
2023/04/30 04:57:44;;;;;;;18.05;9.00;;;;;;;10.22;87.63;96518.06;5092149;28;20048;-74
2023/04/30 05:00:11;;;;;;;15.95;8.88;;;;;;;10.27;87.46;96526.13;5090939;28;20036;-74
2023/04/30 05:02:38;;;;;;;15.02;8.75;;;;;;;10.27;87.21;96526.13;5091976;28;20036;-74
2023/04/30 05:05:05;;;;;;;18.88;9.88;;;;;;;10.26;86.79;96521.78;5089972;28;20044;-75
2023/04/30 05:07:33;;;;;;;15.57;8.63;;;;;;;10.17;87.22;96530.66;5092457;28;20064;-75
2023/04/30 05:10:00;;;;;;;17.48;8.57;;;;;;;10.25;86.96;96521.00;5092491;28;20097;-75
2023/04/30 05:12:26;;;;;;;15.43;8.82;;;;;;;10.27;86.99;96531.56;5091579;28;20371;-73
2023/04/30 05:14:53;;;;;;;15.50;8.30;;;;;;;10.32;86.47;96537.69;5091683;28;20048;-75
2023/04/30 05:17:19;;;;;;;16.42;8.57;;;;;;;10.35;86.53;96547.16;5092085;28;20130;-73
2023/04/30 05:19:47;;;;;;;15.77;8.32;;;;;;;10.39;85.86;96546.22;5093221;28;20051;-73
2023/04/30 05:22:14;;;;;;;15.23;8.55;;;;;;;10.47;86.08;96535.69;5093020;28;20491;-74
2023/04/30 05:24:42;;;;;;;14.20;8.32;;;;;;;10.40;85.07;96538.84;5092228;27;20047;-74
2023/04/30 05:27:09;;;;;;;20.42;9.02;;;;;;;10.51;85.11;96545.63;5083970;28;20048;-74
2023/04/30 05:29:35;;;;;;;11.48;7.88;;;;;;;10.44;84.37;96551.53;5093301;28;20036;-74
2023/04/30 05:32:02;;;;;;;16.73;8.90;;;;;;;10.40;84.50;96549.75;5093397;28;20048;-73
2023/04/30 05:34:28;;;;;;;14.02;8.00;;;;;;;10.54;84.68;96553.16;5092893;28;20467;-74
2023/04/30 05:36:55;;;;;;;21.70;9.93;;;;;;;10.55;83.58;96551.28;5091357;28;20048;-73
2023/04/30 05:39:21;;;;;;;12.85;7.70;;;;;;;10.67;83.30;96555.00;5092058;27;20051;-73
2023/04/30 05:41:49;;;;;;;15.18;8.75;;;;;;;10.54;82.13;96555.88;5093529;28;20040;-74
2023/04/30 05:44:16;;;;;;;15.48;8.43;;;;;;;10.70;82.29;96559.84;5091118;28;20070;-74
2023/04/30 05:46:42;;;;;;;13.60;8.15;;;;;;;10.65;81.80;96546.34;5091858;28;20133;-73
2023/04/30 05:49:09;;;;;;;14.35;8.32;;;;;;;10.64;80.97;96550.16;5090251;27;20694;-73
2023/04/30 05:51:35;;;;;;;13.95;7.95;;;;;;;10.75;80.61;96552.63;5092347;28;20075;-74
2023/04/30 05:54:02;;;;;;;13.75;8.30;;;;;;;10.91;79.91;96553.81;5091679;28;20048;-73
2023/04/30 05:56:28;;;;;;;12.95;7.97;;;;;;;11.00;80.70;96556.56;5090334;28;20051;-73
2023/04/30 05:58:56;;;;;;;16.25;8.95;;;;;;;11.04;80.70;96560.28;5091418;28;20052;-73
2023/04/30 06:01:23;;;;;;;17.15;8.82;;;;;;;11.09;79.67;96551.97;5085019;28;20045;-74
2023/04/30 06:03:49;;;;;;;13.52;7.95;;;;;;;11.20;80.02;96554.06;5088024;28;20052;-73
2023/04/30 06:06:16;;;;;;;16.42;8.25;;;;;;;11.26;79.50;96551.19;5090287;28;20052;-73
2023/04/30 06:08:44;;;;;;;13.35;7.45;;;;;;;11.34;79.45;96561.31;5089252;27;20058;-73
2023/04/30 06:11:31;;;;;;;26.38;16.77;;;;;;;11.38;78.88;96554.09;5080261;27;20047;-74
2023/04/30 06:13:59;;;;;;;13.25;7.80;;;;;;;11.44;79.54;96550.13;5081209;28;20043;-73
2023/04/30 06:16:26;;;;;;;16.05;7.88;;;;;;;11.48;78.58;96548.34;5089780;28;20036;-73
2023/04/30 06:18:52;;;;;;;13.40;7.30;;;;;;;11.53;77.42;96545.47;5088012;28;20068;-74
2023/04/30 06:21:19;;;;;;;22.35;9.15;;;;;;;11.50;76.82;96548.84;5088743;28;20402;-73
2023/04/30 06:23:45;;;;;;;11.27;7.20;;;;;;;11.53;76.83;96553.63;5089875;28;20044;-74
2023/04/30 06:26:13;;;;;;;14.00;7.38;;;;;;;11.51;76.06;96555.91;5082123;28;20039;-74
2023/04/30 06:28:40;;;;;;;13.95;7.55;;;;;;;11.57;76.35;96554.63;5090682;28;20036;-74
2023/04/30 06:31:08;;;;;;;18.10;8.43;;;;;;;11.57;76.18;96554.63;5089947;28;20483;-74
2023/04/30 06:33:34;;;;;;;17.02;7.22;;;;;;;11.71;76.54;96554.47;5090454;28;20040;-74
2023/04/30 06:36:01;;;;;;;12.40;6.55;;;;;;;11.78;76.02;96554.78;5090417;28;20051;-73
2023/04/30 06:38:28;;;;;;;12.20;6.53;;;;;;;11.93;76.63;96550.81;5088269;27;20043;-73
2023/04/30 06:40:54;;;;;;;11.77;6.65;;;;;;;12.01;75.18;96550.03;5090619;28;20131;-74
2023/04/30 06:43:21;;;;;;;13.85;7.18;;;;;;;12.13;74.22;96554.81;5091495;28;20415;-74
2023/04/30 06:45:47;;;;;;;11.50;6.38;;;;;;;12.18;72.71;96547.25;5091607;28;20044;-74
2023/04/30 06:48:15;;;;;;;15.70;7.50;;;;;;;12.24;72.55;96551.44;5081024;27;20047;-73
2023/04/30 06:50:43;;;;;;;10.52;6.28;;;;;;;12.38;71.26;96561.38;5085807;28;20043;-74
2023/04/30 06:53:11;;;;;;;10.13;5.80;;;;;;;12.35;68.92;96556.56;5090343;28;20040;-74
2023/04/30 06:55:37;;;;;;;11.30;5.85;;;;;;;12.41;67.17;96556.03;5090505;28;20044;-74
2023/04/30 06:58:04;;;;;;;10.63;6.05;;;;;;;12.53;67.92;96558.13;5090075;28;20048;-74
2023/04/30 07:00:31;;;;;;;11.07;6.15;;;;;;;12.50;67.66;96553.31;5088634;28;20040;-73
2023/04/30 07:02:59;;;;;;;13.30;6.10;;;;;;;12.43;67.95;96558.47;5090472;28;20052;-73
2023/04/30 07:05:27;;;;;;;11.25;6.07;;;;;;;12.38;67.81;96555.91;5090021;28;20032;-74
2023/04/30 07:07:54;;;;;;;9.57;6.13;;;;;;;12.38;68.49;96556.72;5091068;28;20059;-73
2023/04/30 07:10:20;;;;;;;23.48;8.85;;;;;;;12.62;67.49;96558.09;5088648;28;20403;-74
2023/04/30 07:12:47;;;;;;;11.63;6.07;;;;;;;12.43;67.10;96544.81;5090969;28;20051;-74
2023/04/30 07:15:13;;;;;;;11.52;6.15;;;;;;;12.41;67.57;96557.97;5090826;28;20056;-73
2023/04/30 07:17:40;;;;;;;12.82;5.97;;;;;;;12.43;67.75;96553.00;5091744;28;20044;-74
2023/04/30 07:20:08;;;;;;;14.38;6.90;;;;;;;12.48;69.72;96555.56;5090205;28;20108;-74
2023/04/30 07:22:36;;;;;;;10.93;5.63;;;;;;;12.45;68.09;96553.47;5089524;27;20071;-74
2023/04/30 07:25:02;;;;;;;14.93;6.80;;;;;;;12.59;67.87;96550.56;5090606;28;20048;-74
2023/04/30 07:27:29;;;;;;;12.88;6.60;;;;;;;12.76;69.22;96545.84;5090571;28;20090;-73
2023/04/30 07:29:55;;;;;;;12.48;6.95;;;;;;;12.93;68.04;96549.63;5090816;28;20043;-74
2023/04/30 07:32:25;;;;;;;13.18;6.25;;;;;;;13.11;66.88;96540.22;5089824;28;20083;-74
2023/04/30 07:34:52;;;;;;;12.15;6.60;;;;;;;13.24;67.19;96544.66;5088526;27;20067;-74
2023/04/30 07:37:20;;;;;;;9.82;5.70;;;;;;;13.64;67.55;96552.47;5088408;27;20119;-74
2023/04/30 07:39:48;;;;;;;11.48;6.00;;;;;;;13.83;65.14;96555.56;5089772;28;20097;-73
2023/04/30 07:42:15;;;;;;;13.30;5.93;;;;;;;13.81;63.29;96546.88;5088967;28;20043;-73
2023/04/30 07:44:41;;;;;;;10.52;5.88;;;;;;;14.07;61.66;96559.56;5088970;28;20060;-73
2023/04/30 07:47:08;;;;;;;13.18;5.80;;;;;;;14.59;58.84;96561.81;5088919;27;20248;-73
2023/04/30 07:49:35;;;;;;;8.48;5.20;;;;;;;15.56;55.84;96552.88;5090421;28;20044;-73
2023/04/30 07:52:02;;;;;;;8.98;4.90;;;;;;;16.44;53.61;96542.06;5089768;28;20048;-73
2023/04/30 07:54:29;;;;;;;8.82;5.00;;;;;;;17.08;52.85;96559.50;5090599;28;20089;-75
2023/04/30 07:56:57;;;;;;;7.03;4.78;;;;;;;17.08;52.57;96559.50;5090494;28;20651;-76
2023/04/30 07:59:23;;;;;;;10.35;5.95;;;;;;;18.19;50.91;96557.34;5088966;28;20457;-73
2023/04/30 08:01:50;;;;;;;7.45;4.57;;;;;;;19.31;47.24;96561.78;5089678;28;20047;-74
2023/04/30 08:04:16;;;;;;;6.90;4.50;;;;;;;20.30;44.57;96551.41;5089053;28;20051;-74
2023/04/30 08:06:43;;;;;;;7.47;4.20;;;;;;;20.76;42.22;96553.16;5090374;28;20418;-74
2023/04/30 08:09:10;;;;;;;6.45;4.47;;;;;;;21.26;41.23;96561.94;5092722;28;20054;-74
2023/04/30 08:11:36;;;;;;;6.72;4.43;;;;;;;21.35;40.63;96554.94;5090476;28;20076;-74
2023/04/30 08:14:05;;;;;;;8.13;4.40;;;;;;;21.07;41.99;96560.97;5093152;28;20054;-74
2023/04/30 08:16:32;;;;;;;11.25;4.80;;;;;;;20.96;41.05;96560.06;5093949;28;20036;-74
2023/04/30 08:18:59;;;;;;;9.57;4.70;;;;;;;20.11;43.39;96561.84;5094294;28;20044;-74
2023/04/30 08:21:26;;;;;;;12.07;5.22;;;;;;;19.10;44.58;96553.16;5093798;28;20662;-74
2023/04/30 08:23:53;;;;;;;10.60;4.70;;;;;;;18.68;45.53;96551.22;5092902;28;20187;-74
2023/04/30 08:26:20;;;;;;;8.65;4.60;;;;;;;18.67;45.82;96560.66;5086240;28;20503;-75
2023/04/30 08:28:46;;;;;;;9.20;4.63;;;;;;;18.22;47.92;96559.38;5094835;28;20609;-74
2023/04/30 08:31:14;;;;;;;10.45;5.10;;;;;;;18.29;48.43;96556.75;5092687;28;20058;-74
2023/04/30 08:33:41;;;;;;;8.43;4.88;;;;;;;17.96;48.02;96549.00;5093307;28;20414;-75
2023/04/30 08:36:08;;;;;;;12.68;5.32;;;;;;;16.93;50.35;96553.63;5092108;28;20133;-74
2023/04/30 08:38:34;;;;;;;14.57;5.97;;;;;;;16.69;52.53;96548.25;5094504;28;20040;-74
2023/04/30 08:41:09;;;;;;;11.55;5.80;;;;;;;16.35;53.65;96553.25;5092822;28;20070;-74
2023/04/30 08:43:35;;;;;;;13.95;5.78;;;;;;;16.46;55.44;96547.25;5092955;28;20070;-73
2023/04/30 08:46:02;;;;;;;10.68;4.78;;;;;;;16.88;53.84;96547.59;5092851;28;20048;-74
2023/04/30 08:48:31;;;;;;;8.07;4.43;;;;;;;16.67;52.54;96550.56;5091620;28;20051;-74
2023/04/30 08:50:59;;;;;;;12.60;5.35;;;;;;;15.89;53.81;96549.97;5092592;28;20043;-74
2023/04/30 08:53:26;;;;;;;12.35;5.10;;;;;;;16.21;55.51;96552.84;5091717;28;20089;-73
2023/04/30 08:55:53;;;;;;;12.23;5.25;;;;;;;16.47;54.27;96557.88;5091332;28;20040;-74
2023/04/30 08:58:20;;;;;;;9.80;4.72;;;;;;;16.72;57.31;96553.09;5073425;28;20044;-74
2023/04/30 09:00:46;;;;;;;13.20;5.32;;;;;;;16.79;53.96;96553.25;5089801;28;20415;-73
2023/04/30 09:03:13;;;;;;;10.32;5.35;;;;;;;16.75;53.28;96551.56;5090511;28;20487;-74
2023/04/30 09:05:42;;;;;;;11.02;5.15;;;;;;;17.00;53.91;96557.72;5092256;28;20050;-73
2023/04/30 09:08:08;;;;;;;14.55;5.45;;;;;;;17.41;54.61;96554.41;5090461;28;20143;-73
2023/04/30 09:10:35;;;;;;;12.18;5.28;;;;;;;17.53;54.59;96548.00;5086401;28;20036;-73
2023/04/30 09:13:04;;;;;;;13.23;4.95;;;;;;;17.75;51.36;96554.84;5086169;28;20436;-73
2023/04/30 09:15:32;;;;;;;12.82;5.75;;;;;;;18.03;52.80;96554.66;5088680;28;20044;-73
2023/04/30 09:18:10;;;;;;;17.30;5.75;;;;;;;17.88;51.22;96556.28;5086630;28;20435;-73
2023/04/30 09:20:37;;;;;;;18.60;5.95;;;;;;;17.24;53.18;96554.78;5081979;28;20123;-74
2023/04/30 09:23:10;;;;;;;17.50;5.88;;;;;;;17.05;52.40;96549.19;5086309;28;20051;-75
2023/04/30 09:25:40;;;;;;;15.85;5.47;;;;;;;16.53;52.96;96556.47;5087426;27;20406;-73
2023/04/30 09:28:08;;;;;;;13.18;5.15;;;;;;;16.30;55.36;96549.94;5087558;28;20441;-74
2023/04/30 09:30:35;;;;;;;16.48;6.82;;;;;;;16.06;56.87;96554.38;5088320;28;20044;-74
2023/04/30 09:33:02;;;;;;;16.80;6.82;;;;;;;16.14;57.98;96549.91;5087828;28;20125;-74
2023/04/30 09:35:30;;;;;;;21.73;6.70;;;;;;;16.08;56.29;96551.31;5087233;28;20056;-74
2023/04/30 09:37:58;;;;;;;15.23;6.00;;;;;;;15.97;56.14;96550.97;5088102;28;20052;-75
2023/04/30 09:40:35;;;;;;;15.63;5.82;;;;;;;15.65;57.58;96550.81;5087678;28;20040;-75
2023/04/30 09:43:03;;;;;;;12.55;5.40;;;;;;;15.56;57.45;96552.06;5082134;28;20741;-75
2023/04/30 09:45:40;;;;;;;12.57;5.05;;;;;;;15.64;57.75;96542.94;5087123;28;20082;-78
2023/04/30 09:48:09;;;;;;;16.70;6.05;;;;;;;15.57;56.50;96553.66;5087856;28;20089;-77
2023/04/30 09:50:38;;;;;;;17.52;5.65;;;;;;;15.40;58.13;96552.78;5088840;28;20552;-74
2023/04/30 09:53:07;;;;;;;17.75;5.95;;;;;;;15.27;55.68;96551.16;5087468;28;20121;-75
2023/04/30 09:55:38;;;;;;;13.40;5.28;;;;;;;15.22;55.21;96554.13;5088182;28;20051;-75
2023/04/30 09:58:07;;;;;;;16.23;5.30;;;;;;;15.26;54.95;96554.25;5087118;28;20059;-76
2023/04/30 10:00:34;;;;;;;14.40;5.35;;;;;;;15.25;54.97;96547.97;5086861;28;20459;-74
2023/04/30 10:03:06;;;;;;;13.80;5.38;;;;;;;15.29;56.95;96548.06;5087280;28;20052;-75
2023/04/30 10:05:36;;;;;;;12.55;5.20;;;;;;;15.38;57.74;96552.31;5088414;28;20551;-75
2023/04/30 10:08:05;;;;;;;11.35;4.70;;;;;;;15.45;57.29;96545.44;5088691;28;20373;-74
2023/04/30 10:10:32;;;;;;;13.02;5.22;;;;;;;15.39;56.01;96550.34;5086190;28;20483;-75
2023/04/30 10:13:09;;;;;;;21.15;6.93;;;;;;;15.27;57.45;96551.16;5086567;28;20052;-74
2023/04/30 10:15:39;;;;;;;12.65;5.53;;;;;;;15.35;55.93;96542.03;5078859;28;20567;-74
2023/04/30 10:18:11;;;;;;;13.50;5.65;;;;;;;15.34;57.02;96536.88;5088536;28;20059;-74
2023/04/30 10:20:39;;;;;;;13.23;5.85;;;;;;;15.36;56.62;96537.34;5088365;28;20071;-74
2023/04/30 10:23:09;;;;;;;9.45;3.85;;;;;;;15.44;56.27;96535.59;5088631;28;20047;-75
2023/04/30 10:25:39;;;;;;;14.02;5.05;;;;;;;15.37;54.93;96538.94;5081872;28;20048;-74
2023/04/30 10:28:11;;;;;;;14.38;5.85;;;;;;;15.18;55.62;96534.03;5087412;28;20553;-76
2023/04/30 10:30:38;;;;;;;12.50;4.35;;;;;;;15.17;53.58;96529.69;5088287;28;20047;-74
2023/04/30 10:33:17;;;;;;;17.85;6.20;;;;;;;15.42;55.23;96530.47;5087142;28;20594;-74
2023/04/30 10:35:49;;;;;;;13.43;4.50;;;;;;;15.23;53.10;96536.53;5084477;28;20054;-75
2023/04/30 10:38:24;;;;;;;14.50;4.83;;;;;;;15.20;54.13;96534.50;5084763;28;20056;-74
2023/04/30 10:40:50;;;;;;;14.70;5.07;;;;;;;15.31;55.76;96530.13;5088385;28;20048;-74
2023/04/30 10:43:20;;;;;;;13.40;5.15;;;;;;;15.35;55.86;96528.31;5088024;28;20337;-75
2023/04/30 10:45:53;;;;;;;11.95;4.78;;;;;;;15.32;56.43;96522.69;5087746;28;20998;-76
2023/04/30 10:48:25;;;;;;;11.10;4.88;;;;;;;15.09;56.31;96516.91;5087924;28;20048;-74
2023/04/30 10:50:55;;;;;;;16.67;5.22;;;;;;;15.33;56.72;96522.34;5074686;28;20418;-75
2023/04/30 10:53:24;;;;;;;14.40;5.15;;;;;;;15.29;54.53;96515.16;5077364;28;20719;-76
2023/04/30 10:55:54;;;;;;;12.48;4.88;;;;;;;15.23;55.20;96522.81;5077595;28;20124;-75
2023/04/30 10:58:30;;;;;;;12.73;4.68;;;;;;;15.29;55.03;96515.94;5086714;28;20052;-74
2023/04/30 11:01:03;;;;;;;16.63;5.03;;;;;;;15.40;55.12;96522.59;5089292;28;20058;-74
2023/04/30 11:03:30;;;;;;;14.30;4.40;;;;;;;15.46;56.09;96508.63;5089366;28;20131;-74
2023/04/30 11:05:57;;;;;;;8.32;3.92;;;;;;;15.76;55.41;96512.69;5090877;28;20048;-74
2023/04/30 11:08:33;;;;;;;7.70;3.70;;;;;;;15.69;55.09;96506.22;5090572;28;20094;-75
2023/04/30 11:11:00;;;;;;;14.60;5.60;;;;;;;15.63;53.54;96508.41;5089618;28;20044;-75
2023/04/30 11:13:28;;;;;;;10.43;4.32;;;;;;;15.56;54.23;96508.16;5088726;27;20043;-74
2023/04/30 11:16:03;;;;;;;9.57;4.20;;;;;;;15.82;54.63;96499.53;5068572;28;20650;-75
2023/04/30 11:18:30;;;;;;;10.43;4.22;;;;;;;15.69;53.41;96504.25;5080369;28;20093;-75
2023/04/30 11:20:57;;;;;;;9.20;4.53;;;;;;;15.72;53.02;96498.09;5090540;28;20051;-74
2023/04/30 11:23:26;;;;;;;9.93;4.07;;;;;;;15.74;52.10;96498.53;5086780;28;20048;-74
2023/04/30 11:25:54;;;;;;;11.25;3.72;;;;;;;16.13;51.33;96504.31;5089950;28;20125;-75
2023/04/30 11:28:26;;;;;;;7.78;3.60;;;;;;;16.29;50.44;96501.66;5087650;28;20457;-74
2023/04/30 11:30:55;;;;;;;10.02;3.67;;;;;;;16.22;50.72;96502.22;5089415;28;20040;-74